sensor_id;sensor_type;location;lat;lon;timestamp;P1;durP1;ratioP1;P2;durP2;ratioP2
6223;SDS011;3145;42.726;23.342;2023-01-04T00:01:23;136.87;;;79.40;;
6223;SDS011;3145;42.726;23.342;2023-01-04T00:03:51;158.43;;;87.30;;
6223;SDS011;3145;42.726;23.342;2023-01-04T00:06:18;143.50;;;85.07;;
6223;SDS011;3145;42.726;23.342;2023-01-04T00:08:45;157.23;;;89.00;;
6223;SDS011;3145;42.726;23.342;2023-01-04T00:11:12;147.00;;;86.63;;
6223;SDS011;3145;42.726;23.342;2023-01-04T00:13:41;141.57;;;80.90;;
6223;SDS011;3145;42.726;23.342;2023-01-04T00:16:10;139.17;;;81.17;;
6223;SDS011;3145;42.726;23.342;2023-01-04T00:18:38;156.83;;;88.97;;
6223;SDS011;3145;42.726;23.342;2023-01-04T00:21:07;173.00;;;94.57;;
6223;SDS011;3145;42.726;23.342;2023-01-04T00:23:35;163.17;;;91.53;;
6223;SDS011;3145;42.726;23.342;2023-01-04T00:26:05;186.70;;;113.73;;
6223;SDS011;3145;42.726;23.342;2023-01-04T00:28:32;158.07;;;91.60;;
6223;SDS011;3145;42.726;23.342;2023-01-04T00:31:00;143.30;;;83.77;;
6223;SDS011;3145;42.726;23.342;2023-01-04T00:33:28;143.77;;;80.57;;
6223;SDS011;3145;42.726;23.342;2023-01-04T00:35:55;128.30;;;77.40;;
6223;SDS011;3145;42.726;23.342;2023-01-04T00:38:23;134.23;;;78.20;;
6223;SDS011;3145;42.726;23.342;2023-01-04T00:40:49;151.40;;;86.37;;
6223;SDS011;3145;42.726;23.342;2023-01-04T00:43:16;166.17;;;96.87;;
6223;SDS011;3145;42.726;23.342;2023-01-04T00:45:43;169.00;;;96.00;;
6223;SDS011;3145;42.726;23.342;2023-01-04T00:48:09;170.73;;;97.07;;
6223;SDS011;3145;42.726;23.342;2023-01-04T00:50:36;198.17;;;109.37;;
6223;SDS011;3145;42.726;23.342;2023-01-04T00:53:03;137.93;;;85.17;;
6223;SDS011;3145;42.726;23.342;2023-01-04T00:55:31;158.03;;;87.53;;
6223;SDS011;3145;42.726;23.342;2023-01-04T00:57:57;153.90;;;83.17;;
6223;SDS011;3145;42.726;23.342;2023-01-04T01:00:24;146.13;;;79.77;;
6223;SDS011;3145;42.726;23.342;2023-01-04T01:02:51;139.03;;;79.87;;
6223;SDS011;3145;42.726;23.342;2023-01-04T01:05:17;132.13;;;77.33;;
6223;SDS011;3145;42.726;23.342;2023-01-04T01:07:44;137.67;;;77.63;;
6223;SDS011;3145;42.726;23.342;2023-01-04T01:10:11;121.23;;;67.97;;
6223;SDS011;3145;42.726;23.342;2023-01-04T01:12:39;108.63;;;62.97;;
6223;SDS011;3145;42.726;23.342;2023-01-04T01:15:06;105.37;;;60.03;;
6223;SDS011;3145;42.726;23.342;2023-01-04T01:17:33;97.73;;;55.07;;
6223;SDS011;3145;42.726;23.342;2023-01-04T01:20:01;99.90;;;55.60;;
6223;SDS011;3145;42.726;23.342;2023-01-04T01:22:29;93.53;;;56.17;;
6223;SDS011;3145;42.726;23.342;2023-01-04T01:24:56;102.43;;;56.90;;
6223;SDS011;3145;42.726;23.342;2023-01-04T01:27:23;91.37;;;54.60;;
6223;SDS011;3145;42.726;23.342;2023-01-04T01:29:51;89.63;;;53.03;;
6223;SDS011;3145;42.726;23.342;2023-01-04T01:32:18;83.50;;;51.70;;
6223;SDS011;3145;42.726;23.342;2023-01-04T01:34:44;100.10;;;55.97;;
6223;SDS011;3145;42.726;23.342;2023-01-04T01:37:11;125.83;;;65.30;;
6223;SDS011;3145;42.726;23.342;2023-01-04T01:39:38;108.00;;;62.50;;
6223;SDS011;3145;42.726;23.342;2023-01-04T01:42:04;95.63;;;56.53;;
6223;SDS011;3145;42.726;23.342;2023-01-04T01:47:28;88.53;;;53.03;;
6223;SDS011;3145;42.726;23.342;2023-01-04T01:50:03;85.63;;;51.37;;
6223;SDS011;3145;42.726;23.342;2023-01-04T01:52:34;86.97;;;54.50;;
6223;SDS011;3145;42.726;23.342;2023-01-04T01:55:03;212.90;;;130.00;;
6223;SDS011;3145;42.726;23.342;2023-01-04T01:57:35;101.40;;;58.03;;
6223;SDS011;3145;42.726;23.342;2023-01-04T02:00:05;83.97;;;52.57;;
6223;SDS011;3145;42.726;23.342;2023-01-04T02:02:36;64.93;;;40.90;;
6223;SDS011;3145;42.726;23.342;2023-01-04T02:05:04;64.47;;;40.83;;
6223;SDS011;3145;42.726;23.342;2023-01-04T02:07:31;53.30;;;35.43;;
6223;SDS011;3145;42.726;23.342;2023-01-04T02:09:59;59.77;;;36.53;;
6223;SDS011;3145;42.726;23.342;2023-01-04T02:12:26;83.10;;;47.40;;
6223;SDS011;3145;42.726;23.342;2023-01-04T02:14:53;89.83;;;53.70;;
6223;SDS011;3145;42.726;23.342;2023-01-04T02:17:22;97.97;;;58.60;;
6223;SDS011;3145;42.726;23.342;2023-01-04T02:26:13;91.73;;;50.87;;
6223;SDS011;3145;42.726;23.342;2023-01-04T02:29:12;85.73;;;48.80;;
6223;SDS011;3145;42.726;23.342;2023-01-04T02:31:58;80.30;;;48.70;;
6223;SDS011;3145;42.726;23.342;2023-01-04T02:34:29;73.20;;;45.43;;
6223;SDS011;3145;42.726;23.342;2023-01-04T02:37:10;75.10;;;45.30;;
6223;SDS011;3145;42.726;23.342;2023-01-04T02:39:46;66.80;;;43.77;;
6223;SDS011;3145;42.726;23.342;2023-01-04T02:42:20;81.23;;;47.27;;
6223;SDS011;3145;42.726;23.342;2023-01-04T02:45:13;73.00;;;45.77;;
6223;SDS011;3145;42.726;23.342;2023-01-04T02:47:43;69.40;;;42.33;;
6223;SDS011;3145;42.726;23.342;2023-01-04T02:50:29;66.83;;;42.97;;
6223;SDS011;3145;42.726;23.342;2023-01-04T02:52:59;62.50;;;38.87;;
6223;SDS011;3145;42.726;23.342;2023-01-04T02:55:30;63.00;;;39.43;;
6223;SDS011;3145;42.726;23.342;2023-01-04T02:58:06;52.37;;;33.03;;
6223;SDS011;3145;42.726;23.342;2023-01-04T03:00:43;53.47;;;32.10;;
6223;SDS011;3145;42.726;23.342;2023-01-04T03:03:39;53.90;;;33.63;;
6223;SDS011;3145;42.726;23.342;2023-01-04T03:06:32;73.43;;;44.70;;
6223;SDS011;3145;42.726;23.342;2023-01-04T03:09:06;85.10;;;39.20;;
6223;SDS011;3145;42.726;23.342;2023-01-04T03:11:41;50.03;;;33.03;;
6223;SDS011;3145;42.726;23.342;2023-01-04T03:14:28;54.13;;;32.40;;
6223;SDS011;3145;42.726;23.342;2023-01-04T03:16:59;49.80;;;31.37;;
6223;SDS011;3145;42.726;23.342;2023-01-04T03:19:32;48.57;;;31.30;;
6223;SDS011;3145;42.726;23.342;2023-01-04T03:22:18;48.23;;;30.87;;
6223;SDS011;3145;42.726;23.342;2023-01-04T03:25:07;46.67;;;29.03;;
6223;SDS011;3145;42.726;23.342;2023-01-04T03:27:52;44.47;;;29.17;;
6223;SDS011;3145;42.726;23.342;2023-01-04T03:30:41;45.10;;;28.23;;
6223;SDS011;3145;42.726;23.342;2023-01-04T03:33:30;43.00;;;26.67;;
6223;SDS011;3145;42.726;23.342;2023-01-04T03:36:21;44.73;;;27.87;;
6223;SDS011;3145;42.726;23.342;2023-01-04T03:38:56;42.47;;;26.83;;
6223;SDS011;3145;42.726;23.342;2023-01-04T03:41:45;37.93;;;26.60;;
6223;SDS011;3145;42.726;23.342;2023-01-04T03:44:33;47.27;;;26.27;;
6223;SDS011;3145;42.726;23.342;2023-01-04T03:47:26;35.00;;;23.97;;
6223;SDS011;3145;42.726;23.342;2023-01-04T03:50:15;40.20;;;25.60;;
6223;SDS011;3145;42.726;23.342;2023-01-04T03:52:49;31.47;;;23.80;;
6223;SDS011;3145;42.726;23.342;2023-01-04T03:55:19;34.50;;;23.70;;
6223;SDS011;3145;42.726;23.342;2023-01-04T03:57:46;36.93;;;23.83;;
6223;SDS011;3145;42.726;23.342;2023-01-04T04:00:14;31.30;;;22.90;;
6223;SDS011;3145;42.726;23.342;2023-01-04T04:02:43;31.57;;;21.53;;
6223;SDS011;3145;42.726;23.342;2023-01-04T04:05:12;36.53;;;23.93;;
6223;SDS011;3145;42.726;23.342;2023-01-04T04:08:01;31.80;;;21.43;;
6223;SDS011;3145;42.726;23.342;2023-01-04T04:10:46;29.33;;;20.13;;
6223;SDS011;3145;42.726;23.342;2023-01-04T04:13:12;31.33;;;21.87;;
6223;SDS011;3145;42.726;23.342;2023-01-04T04:15:39;30.63;;;21.17;;
6223;SDS011;3145;42.726;23.342;2023-01-04T04:18:06;34.30;;;21.43;;
6223;SDS011;3145;42.726;23.342;2023-01-04T04:20:33;31.23;;;20.90;;
6223;SDS011;3145;42.726;23.342;2023-01-04T04:23:01;29.13;;;20.57;;
6223;SDS011;3145;42.726;23.342;2023-01-04T04:25:28;32.83;;;21.60;;
6223;SDS011;3145;42.726;23.342;2023-01-04T04:27:55;32.97;;;20.47;;
6223;SDS011;3145;42.726;23.342;2023-01-04T04:30:21;28.07;;;20.70;;
6223;SDS011;3145;42.726;23.342;2023-01-04T04:32:48;29.93;;;19.80;;
6223;SDS011;3145;42.726;23.342;2023-01-04T04:35:15;31.23;;;20.57;;
6223;SDS011;3145;42.726;23.342;2023-01-04T04:37:42;28.93;;;20.43;;
6223;SDS011;3145;42.726;23.342;2023-01-04T04:40:11;29.93;;;20.20;;
6223;SDS011;3145;42.726;23.342;2023-01-04T04:43:03;29.23;;;19.67;;
6223;SDS011;3145;42.726;23.342;2023-01-04T04:45:32;27.47;;;19.67;;
6223;SDS011;3145;42.726;23.342;2023-01-04T04:47:59;30.23;;;20.23;;
6223;SDS011;3145;42.726;23.342;2023-01-04T04:50:26;31.17;;;20.43;;
6223;SDS011;3145;42.726;23.342;2023-01-04T04:52:52;28.37;;;20.50;;
6223;SDS011;3145;42.726;23.342;2023-01-04T04:55:20;33.00;;;20.50;;
6223;SDS011;3145;42.726;23.342;2023-01-04T04:57:47;26.70;;;19.57;;
6223;SDS011;3145;42.726;23.342;2023-01-04T05:00:14;29.60;;;18.87;;
6223;SDS011;3145;42.726;23.342;2023-01-04T05:02:41;29.30;;;18.47;;
6223;SDS011;3145;42.726;23.342;2023-01-04T05:05:08;32.70;;;19.63;;
6223;SDS011;3145;42.726;23.342;2023-01-04T05:07:35;28.57;;;20.03;;
6223;SDS011;3145;42.726;23.342;2023-01-04T05:10:02;27.50;;;19.27;;
6223;SDS011;3145;42.726;23.342;2023-01-04T05:12:30;24.37;;;18.70;;
6223;SDS011;3145;42.726;23.342;2023-01-04T05:15:14;26.07;;;19.13;;
6223;SDS011;3145;42.726;23.342;2023-01-04T05:17:41;24.57;;;18.30;;
6223;SDS011;3145;42.726;23.342;2023-01-04T05:20:08;25.33;;;19.47;;
6223;SDS011;3145;42.726;23.342;2023-01-04T05:22:35;28.60;;;19.43;;
6223;SDS011;3145;42.726;23.342;2023-01-04T05:25:02;29.67;;;20.60;;
6223;SDS011;3145;42.726;23.342;2023-01-04T05:27:31;29.60;;;20.60;;
6223;SDS011;3145;42.726;23.342;2023-01-04T05:29:57;28.27;;;19.57;;
6223;SDS011;3145;42.726;23.342;2023-01-04T05:32:42;27.80;;;20.60;;
6223;SDS011;3145;42.726;23.342;2023-01-04T05:35:11;29.30;;;19.77;;
6223;SDS011;3145;42.726;23.342;2023-01-04T05:37:37;31.67;;;19.80;;
6223;SDS011;3145;42.726;23.342;2023-01-04T05:40:04;27.30;;;19.57;;
6223;SDS011;3145;42.726;23.342;2023-01-04T05:42:33;32.13;;;19.67;;
6223;SDS011;3145;42.726;23.342;2023-01-04T05:45:00;30.83;;;20.37;;
6223;SDS011;3145;42.726;23.342;2023-01-04T05:47:27;30.50;;;20.70;;
6223;SDS011;3145;42.726;23.342;2023-01-04T05:49:54;27.67;;;20.23;;
6223;SDS011;3145;42.726;23.342;2023-01-04T05:52:21;36.43;;;20.33;;
6223;SDS011;3145;42.726;23.342;2023-01-04T05:54:48;28.00;;;20.93;;
6223;SDS011;3145;42.726;23.342;2023-01-04T05:57:15;31.53;;;20.53;;
6223;SDS011;3145;42.726;23.342;2023-01-04T05:59:43;30.30;;;20.10;;
6223;SDS011;3145;42.726;23.342;2023-01-04T06:02:14;28.30;;;21.07;;
6223;SDS011;3145;42.726;23.342;2023-01-04T06:04:43;33.03;;;20.13;;
6223;SDS011;3145;42.726;23.342;2023-01-04T06:07:10;28.77;;;19.43;;
6223;SDS011;3145;42.726;23.342;2023-01-04T06:09:36;28.50;;;20.37;;
6223;SDS011;3145;42.726;23.342;2023-01-04T06:12:03;31.10;;;20.20;;
6223;SDS011;3145;42.726;23.342;2023-01-04T06:14:30;27.60;;;19.97;;
6223;SDS011;3145;42.726;23.342;2023-01-04T06:16:58;32.90;;;20.57;;
6223;SDS011;3145;42.726;23.342;2023-01-04T06:19:25;31.43;;;21.50;;
6223;SDS011;3145;42.726;23.342;2023-01-04T06:21:52;27.60;;;20.23;;
6223;SDS011;3145;42.726;23.342;2023-01-04T06:24:19;30.80;;;20.20;;
6223;SDS011;3145;42.726;23.342;2023-01-04T06:26:46;30.13;;;20.43;;
6223;SDS011;3145;42.726;23.342;2023-01-04T06:29:12;31.57;;;22.50;;
6223;SDS011;3145;42.726;23.342;2023-01-04T06:31:40;29.53;;;21.43;;
6223;SDS011;3145;42.726;23.342;2023-01-04T06:34:09;32.47;;;20.83;;
6223;SDS011;3145;42.726;23.342;2023-01-04T06:36:36;30.83;;;22.43;;
6223;SDS011;3145;42.726;23.342;2023-01-04T06:39:03;36.17;;;21.87;;
6223;SDS011;3145;42.726;23.342;2023-01-04T06:41:30;33.17;;;22.27;;
6223;SDS011;3145;42.726;23.342;2023-01-04T06:43:57;36.30;;;22.03;;
6223;SDS011;3145;42.726;23.342;2023-01-04T06:46:25;40.60;;;23.50;;
6223;SDS011;3145;42.726;23.342;2023-01-04T06:48:51;35.80;;;23.40;;
6223;SDS011;3145;42.726;23.342;2023-01-04T06:51:19;32.80;;;21.43;;
6223;SDS011;3145;42.726;23.342;2023-01-04T06:53:47;34.03;;;21.50;;
6223;SDS011;3145;42.726;23.342;2023-01-04T06:56:14;32.33;;;20.97;;
6223;SDS011;3145;42.726;23.342;2023-01-04T06:58:41;30.93;;;19.80;;
6223;SDS011;3145;42.726;23.342;2023-01-04T07:01:08;27.80;;;19.73;;
6223;SDS011;3145;42.726;23.342;2023-01-04T07:03:34;32.00;;;20.70;;
6223;SDS011;3145;42.726;23.342;2023-01-04T07:06:02;31.27;;;20.10;;
6223;SDS011;3145;42.726;23.342;2023-01-04T07:08:31;34.00;;;21.67;;
6223;SDS011;3145;42.726;23.342;2023-01-04T07:10:59;36.33;;;20.13;;
6223;SDS011;3145;42.726;23.342;2023-01-04T07:13:25;28.97;;;19.23;;
6223;SDS011;3145;42.726;23.342;2023-01-04T07:15:52;32.33;;;19.20;;
6223;SDS011;3145;42.726;23.342;2023-01-04T07:18:19;29.20;;;20.90;;
6223;SDS011;3145;42.726;23.342;2023-01-04T07:20:46;31.47;;;20.80;;
6223;SDS011;3145;42.726;23.342;2023-01-04T07:23:13;35.53;;;20.70;;
6223;SDS011;3145;42.726;23.342;2023-01-04T07:25:41;30.50;;;21.43;;
6223;SDS011;3145;42.726;23.342;2023-01-04T07:28:07;28.00;;;19.80;;
6223;SDS011;3145;42.726;23.342;2023-01-04T07:30:34;27.87;;;18.80;;
6223;SDS011;3145;42.726;23.342;2023-01-04T07:33:01;28.50;;;19.67;;
6223;SDS011;3145;42.726;23.342;2023-01-04T07:35:28;33.03;;;21.17;;
6223;SDS011;3145;42.726;23.342;2023-01-04T07:37:55;37.13;;;21.60;;
6223;SDS011;3145;42.726;23.342;2023-01-04T07:40:21;31.13;;;19.70;;
6223;SDS011;3145;42.726;23.342;2023-01-04T07:42:53;29.83;;;20.53;;
6223;SDS011;3145;42.726;23.342;2023-01-04T07:45:22;33.00;;;20.43;;
6223;SDS011;3145;42.726;23.342;2023-01-04T07:47:48;27.97;;;19.37;;
6223;SDS011;3145;42.726;23.342;2023-01-04T07:50:15;25.93;;;18.20;;
6223;SDS011;3145;42.726;23.342;2023-01-04T07:52:42;28.73;;;18.07;;
6223;SDS011;3145;42.726;23.342;2023-01-04T07:55:09;24.77;;;17.07;;
6223;SDS011;3145;42.726;23.342;2023-01-04T07:57:35;29.20;;;18.37;;
6223;SDS011;3145;42.726;23.342;2023-01-04T08:00:04;24.80;;;17.50;;
6223;SDS011;3145;42.726;23.342;2023-01-04T08:02:32;29.90;;;18.57;;
6223;SDS011;3145;42.726;23.342;2023-01-04T08:04:58;25.30;;;17.43;;
6223;SDS011;3145;42.726;23.342;2023-01-04T08:07:25;26.20;;;18.67;;
6223;SDS011;3145;42.726;23.342;2023-01-04T08:09:52;29.57;;;20.43;;
6223;SDS011;3145;42.726;23.342;2023-01-04T08:12:19;30.37;;;20.23;;
6223;SDS011;3145;42.726;23.342;2023-01-04T08:14:45;33.90;;;20.93;;
6223;SDS011;3145;42.726;23.342;2023-01-04T08:17:14;28.63;;;20.00;;
6223;SDS011;3145;42.726;23.342;2023-01-04T08:19:40;33.97;;;21.27;;
6223;SDS011;3145;42.726;23.342;2023-01-04T08:22:07;34.60;;;22.13;;
6223;SDS011;3145;42.726;23.342;2023-01-04T08:24:34;35.37;;;23.73;;
6223;SDS011;3145;42.726;23.342;2023-01-04T08:27:00;44.43;;;31.70;;
6223;SDS011;3145;42.726;23.342;2023-01-04T08:29:27;57.73;;;39.73;;
6223;SDS011;3145;42.726;23.342;2023-01-04T08:31:54;39.40;;;26.30;;
6223;SDS011;3145;42.726;23.342;2023-01-04T08:34:22;34.57;;;22.53;;
6223;SDS011;3145;42.726;23.342;2023-01-04T08:36:49;30.47;;;19.77;;
6223;SDS011;3145;42.726;23.342;2023-01-04T08:39:17;30.17;;;21.83;;
6223;SDS011;3145;42.726;23.342;2023-01-04T08:41:45;32.13;;;21.30;;
6223;SDS011;3145;42.726;23.342;2023-01-04T08:44:19;31.03;;;21.60;;
6223;SDS011;3145;42.726;23.342;2023-01-04T08:46:46;25.53;;;19.23;;
6223;SDS011;3145;42.726;23.342;2023-01-04T08:49:14;31.67;;;20.27;;
6223;SDS011;3145;42.726;23.342;2023-01-04T08:51:42;32.57;;;21.40;;
6223;SDS011;3145;42.726;23.342;2023-01-04T08:54:10;27.13;;;20.00;;
6223;SDS011;3145;42.726;23.342;2023-01-04T08:56:38;27.40;;;19.50;;
6223;SDS011;3145;42.726;23.342;2023-01-04T08:59:05;25.53;;;19.90;;
6223;SDS011;3145;42.726;23.342;2023-01-04T09:01:33;30.73;;;22.43;;
6223;SDS011;3145;42.726;23.342;2023-01-04T09:04:00;27.83;;;20.27;;
6223;SDS011;3145;42.726;23.342;2023-01-04T09:06:27;27.57;;;19.47;;
6223;SDS011;3145;42.726;23.342;2023-01-04T09:08:56;37.50;;;23.10;;
6223;SDS011;3145;42.726;23.342;2023-01-04T09:11:23;32.83;;;22.33;;
6223;SDS011;3145;42.726;23.342;2023-01-04T09:13:53;28.43;;;18.90;;
6223;SDS011;3145;42.726;23.342;2023-01-04T09:16:21;24.73;;;18.20;;
6223;SDS011;3145;42.726;23.342;2023-01-04T09:18:48;30.43;;;21.30;;
6223;SDS011;3145;42.726;23.342;2023-01-04T09:21:15;78.40;;;44.90;;
6223;SDS011;3145;42.726;23.342;2023-01-04T09:23:42;29.53;;;20.10;;
6223;SDS011;3145;42.726;23.342;2023-01-04T09:26:12;23.73;;;18.17;;
6223;SDS011;3145;42.726;23.342;2023-01-04T09:28:40;27.40;;;20.47;;
6223;SDS011;3145;42.726;23.342;2023-01-04T09:31:09;26.27;;;20.87;;
6223;SDS011;3145;42.726;23.342;2023-01-04T09:33:37;24.00;;;18.70;;
6223;SDS011;3145;42.726;23.342;2023-01-04T09:36:04;26.10;;;18.50;;
6223;SDS011;3145;42.726;23.342;2023-01-04T09:38:33;27.17;;;18.20;;
6223;SDS011;3145;42.726;23.342;2023-01-04T09:41:02;24.43;;;16.77;;
6223;SDS011;3145;42.726;23.342;2023-01-04T09:43:38;27.57;;;19.17;;
6223;SDS011;3145;42.726;23.342;2023-01-04T09:46:11;29.67;;;17.33;;
6223;SDS011;3145;42.726;23.342;2023-01-04T09:48:44;26.17;;;17.47;;
6223;SDS011;3145;42.726;23.342;2023-01-04T09:51:15;21.77;;;15.80;;
6223;SDS011;3145;42.726;23.342;2023-01-04T09:53:46;21.93;;;16.03;;
6223;SDS011;3145;42.726;23.342;2023-01-04T09:56:19;20.80;;;17.03;;
6223;SDS011;3145;42.726;23.342;2023-01-04T09:58:53;31.13;;;18.93;;
6223;SDS011;3145;42.726;23.342;2023-01-04T10:01:21;25.00;;;18.30;;
6223;SDS011;3145;42.726;23.342;2023-01-04T10:03:53;25.73;;;17.43;;
6223;SDS011;3145;42.726;23.342;2023-01-04T10:06:25;25.67;;;18.13;;
6223;SDS011;3145;42.726;23.342;2023-01-04T10:08:51;25.27;;;18.00;;
6223;SDS011;3145;42.726;23.342;2023-01-04T10:11:24;29.17;;;19.90;;
6223;SDS011;3145;42.726;23.342;2023-01-04T10:14:06;30.93;;;20.50;;
6223;SDS011;3145;42.726;23.342;2023-01-04T10:16:50;24.00;;;17.97;;
6223;SDS011;3145;42.726;23.342;2023-01-04T10:19:30;24.07;;;19.33;;
6223;SDS011;3145;42.726;23.342;2023-01-04T10:22:09;23.97;;;16.77;;
6223;SDS011;3145;42.726;23.342;2023-01-04T10:24:41;24.63;;;15.90;;
6223;SDS011;3145;42.726;23.342;2023-01-04T10:27:16;22.50;;;15.83;;
6223;SDS011;3145;42.726;23.342;2023-01-04T10:30:03;30.93;;;21.57;;
6223;SDS011;3145;42.726;23.342;2023-01-04T10:32:40;25.53;;;17.77;;
6223;SDS011;3145;42.726;23.342;2023-01-04T10:35:16;23.30;;;17.50;;
6223;SDS011;3145;42.726;23.342;2023-01-04T10:37:45;22.90;;;18.47;;
6223;SDS011;3145;42.726;23.342;2023-01-04T10:40:16;32.33;;;19.10;;
6223;SDS011;3145;42.726;23.342;2023-01-04T10:42:44;24.67;;;17.20;;
6223;SDS011;3145;42.726;23.342;2023-01-04T10:45:20;27.20;;;17.53;;
6223;SDS011;3145;42.726;23.342;2023-01-04T10:47:58;23.63;;;15.77;;
6223;SDS011;3145;42.726;23.342;2023-01-04T10:50:35;23.47;;;16.43;;
6223;SDS011;3145;42.726;23.342;2023-01-04T10:53:11;25.60;;;17.90;;
6223;SDS011;3145;42.726;23.342;2023-01-04T10:55:44;23.17;;;16.03;;
6223;SDS011;3145;42.726;23.342;2023-01-04T10:58:16;21.70;;;15.73;;
6223;SDS011;3145;42.726;23.342;2023-01-04T11:00:49;25.03;;;16.27;;
6223;SDS011;3145;42.726;23.342;2023-01-04T11:03:20;20.93;;;15.77;;
6223;SDS011;3145;42.726;23.342;2023-01-04T11:05:52;22.60;;;14.70;;
6223;SDS011;3145;42.726;23.342;2023-01-04T11:08:25;23.30;;;16.10;;
6223;SDS011;3145;42.726;23.342;2023-01-04T11:10:59;22.80;;;17.10;;
6223;SDS011;3145;42.726;23.342;2023-01-04T11:13:29;26.63;;;16.30;;
6223;SDS011;3145;42.726;23.342;2023-01-04T11:15:58;19.37;;;14.47;;
6223;SDS011;3145;42.726;23.342;2023-01-04T11:18:26;20.30;;;14.30;;
6223;SDS011;3145;42.726;23.342;2023-01-04T11:20:54;20.10;;;14.40;;
6223;SDS011;3145;42.726;23.342;2023-01-04T11:23:23;36.00;;;24.03;;
6223;SDS011;3145;42.726;23.342;2023-01-04T11:25:51;35.63;;;23.47;;
6223;SDS011;3145;42.726;23.342;2023-01-04T11:28:22;30.90;;;23.00;;
6223;SDS011;3145;42.726;23.342;2023-01-04T11:31:00;25.10;;;18.27;;
6223;SDS011;3145;42.726;23.342;2023-01-04T11:33:30;31.97;;;21.47;;
6223;SDS011;3145;42.726;23.342;2023-01-04T11:36:26;22.03;;;17.93;;
6223;SDS011;3145;42.726;23.342;2023-01-04T11:38:59;20.03;;;15.83;;
6223;SDS011;3145;42.726;23.342;2023-01-04T11:41:26;20.93;;;15.10;;
6223;SDS011;3145;42.726;23.342;2023-01-04T11:43:57;20.23;;;15.20;;
6223;SDS011;3145;42.726;23.342;2023-01-04T11:46:26;18.97;;;15.63;;
6223;SDS011;3145;42.726;23.342;2023-01-04T11:48:54;19.03;;;15.17;;
6223;SDS011;3145;42.726;23.342;2023-01-04T11:51:32;25.20;;;16.87;;
6223;SDS011;3145;42.726;23.342;2023-01-04T11:54:04;31.57;;;18.67;;
6223;SDS011;3145;42.726;23.342;2023-01-04T11:56:32;22.07;;;16.60;;
6223;SDS011;3145;42.726;23.342;2023-01-04T11:59:02;15.30;;;13.70;;
6223;SDS011;3145;42.726;23.342;2023-01-04T12:01:40;21.23;;;15.40;;
6223;SDS011;3145;42.726;23.342;2023-01-04T12:04:09;20.27;;;14.77;;
6223;SDS011;3145;42.726;23.342;2023-01-04T12:06:40;23.13;;;14.93;;
6223;SDS011;3145;42.726;23.342;2023-01-04T12:09:13;20.30;;;15.87;;
6223;SDS011;3145;42.726;23.342;2023-01-04T12:11:42;24.57;;;15.13;;
6223;SDS011;3145;42.726;23.342;2023-01-04T12:14:17;19.93;;;15.07;;
6223;SDS011;3145;42.726;23.342;2023-01-04T12:16:47;20.07;;;14.90;;
6223;SDS011;3145;42.726;23.342;2023-01-04T12:19:20;20.57;;;15.03;;
6223;SDS011;3145;42.726;23.342;2023-01-04T12:21:48;18.27;;;14.07;;
6223;SDS011;3145;42.726;23.342;2023-01-04T12:24:17;24.23;;;17.23;;
6223;SDS011;3145;42.726;23.342;2023-01-04T12:26:45;22.17;;;14.53;;
6223;SDS011;3145;42.726;23.342;2023-01-04T12:38:08;23.10;;;16.97;;
6223;SDS011;3145;42.726;23.342;2023-01-04T12:40:51;19.57;;;16.20;;
6223;SDS011;3145;42.726;23.342;2023-01-04T12:43:22;24.33;;;19.03;;
6223;SDS011;3145;42.726;23.342;2023-01-04T12:55:15;22.73;;;15.77;;
6223;SDS011;3145;42.726;23.342;2023-01-04T12:57:50;20.60;;;16.20;;
6223;SDS011;3145;42.726;23.342;2023-01-04T13:00:17;24.67;;;14.97;;
6223;SDS011;3145;42.726;23.342;2023-01-04T13:02:45;21.40;;;14.33;;
6223;SDS011;3145;42.726;23.342;2023-01-04T13:05:30;17.23;;;15.40;;
6223;SDS011;3145;42.726;23.342;2023-01-04T13:08:01;24.10;;;17.37;;
6223;SDS011;3145;42.726;23.342;2023-01-04T13:10:34;26.23;;;17.37;;
6223;SDS011;3145;42.726;23.342;2023-01-04T13:13:07;28.83;;;16.20;;
6223;SDS011;3145;42.726;23.342;2023-01-04T13:15:59;24.90;;;16.87;;
6223;SDS011;3145;42.726;23.342;2023-01-04T13:18:35;30.03;;;20.40;;
6223;SDS011;3145;42.726;23.342;2023-01-04T13:21:11;25.53;;;18.87;;
6223;SDS011;3145;42.726;23.342;2023-01-04T13:23:45;30.30;;;19.37;;
6223;SDS011;3145;42.726;23.342;2023-01-04T13:26:36;25.33;;;17.77;;
6223;SDS011;3145;42.726;23.342;2023-01-04T13:29:12;24.47;;;16.17;;
6223;SDS011;3145;42.726;23.342;2023-01-04T13:31:45;25.40;;;16.17;;
6223;SDS011;3145;42.726;23.342;2023-01-04T13:34:18;26.40;;;17.60;;
6223;SDS011;3145;42.726;23.342;2023-01-04T13:36:57;27.00;;;16.90;;
6223;SDS011;3145;42.726;23.342;2023-01-04T13:39:29;21.70;;;14.97;;
6223;SDS011;3145;42.726;23.342;2023-01-04T13:41:56;20.97;;;14.63;;
6223;SDS011;3145;42.726;23.342;2023-01-04T13:44:27;22.53;;;15.47;;
6223;SDS011;3145;42.726;23.342;2023-01-04T13:47:16;25.93;;;15.73;;
6223;SDS011;3145;42.726;23.342;2023-01-04T13:49:43;25.33;;;17.57;;
6223;SDS011;3145;42.726;23.342;2023-01-04T13:52:20;26.07;;;16.57;;
6223;SDS011;3145;42.726;23.342;2023-01-04T13:54:47;20.27;;;13.77;;
6223;SDS011;3145;42.726;23.342;2023-01-04T13:57:15;22.93;;;15.70;;
6223;SDS011;3145;42.726;23.342;2023-01-04T13:59:45;22.90;;;15.87;;
6223;SDS011;3145;42.726;23.342;2023-01-04T14:02:16;28.67;;;17.53;;
6223;SDS011;3145;42.726;23.342;2023-01-04T14:04:44;24.10;;;17.53;;
6223;SDS011;3145;42.726;23.342;2023-01-04T14:07:17;22.10;;;15.97;;
6223;SDS011;3145;42.726;23.342;2023-01-04T14:09:48;21.43;;;14.77;;
6223;SDS011;3145;42.726;23.342;2023-01-04T14:12:18;23.10;;;16.67;;
6223;SDS011;3145;42.726;23.342;2023-01-04T14:14:48;27.60;;;19.50;;
6223;SDS011;3145;42.726;23.342;2023-01-04T14:17:20;18.37;;;14.83;;
6223;SDS011;3145;42.726;23.342;2023-01-04T14:19:52;22.03;;;15.97;;
6223;SDS011;3145;42.726;23.342;2023-01-04T14:22:25;23.60;;;16.93;;
6223;SDS011;3145;42.726;23.342;2023-01-04T14:24:53;24.57;;;16.90;;
6223;SDS011;3145;42.726;23.342;2023-01-04T14:27:28;19.97;;;15.13;;
6223;SDS011;3145;42.726;23.342;2023-01-04T14:29:55;33.17;;;20.40;;
6223;SDS011;3145;42.726;23.342;2023-01-04T14:32:22;37.83;;;21.53;;
6223;SDS011;3145;42.726;23.342;2023-01-04T14:34:49;35.70;;;20.17;;
6223;SDS011;3145;42.726;23.342;2023-01-04T14:37:16;37.87;;;21.20;;
6223;SDS011;3145;42.726;23.342;2023-01-04T14:39:44;28.93;;;18.00;;
6223;SDS011;3145;42.726;23.342;2023-01-04T14:42:22;24.50;;;18.20;;
6223;SDS011;3145;42.726;23.342;2023-01-04T14:44:49;30.23;;;18.30;;
6223;SDS011;3145;42.726;23.342;2023-01-04T14:47:16;30.37;;;20.53;;
6223;SDS011;3145;42.726;23.342;2023-01-04T14:49:43;31.97;;;21.30;;
6223;SDS011;3145;42.726;23.342;2023-01-04T14:52:10;28.60;;;20.23;;
6223;SDS011;3145;42.726;23.342;2023-01-04T14:54:45;27.83;;;18.30;;
6223;SDS011;3145;42.726;23.342;2023-01-04T14:57:11;27.87;;;18.33;;
6223;SDS011;3145;42.726;23.342;2023-01-04T14:59:38;26.10;;;17.77;;
6223;SDS011;3145;42.726;23.342;2023-01-04T15:02:07;25.87;;;18.00;;
6223;SDS011;3145;42.726;23.342;2023-01-04T15:04:35;23.90;;;16.40;;
6223;SDS011;3145;42.726;23.342;2023-01-04T15:07:02;24.60;;;16.13;;
6223;SDS011;3145;42.726;23.342;2023-01-04T15:09:29;24.23;;;16.00;;
6223;SDS011;3145;42.726;23.342;2023-01-04T15:11:57;30.47;;;19.87;;
6223;SDS011;3145;42.726;23.342;2023-01-04T15:14:24;34.67;;;20.83;;
6223;SDS011;3145;42.726;23.342;2023-01-04T15:16:51;28.83;;;19.00;;
6223;SDS011;3145;42.726;23.342;2023-01-04T15:19:17;30.53;;;19.67;;
6223;SDS011;3145;42.726;23.342;2023-01-04T15:21:44;29.23;;;20.03;;